Time;durP1;ratioP1;P1;durP2;ratioP2;P2;SDS_P1;SDS_P2;PMS_P1;PMS_P2;Temp;Humidity;BMP_temperature;BMP_pressure;BME280_temperature;BME280_humidity;BME280_pressure;Samples;Min_cycle;Max_cycle;Signal;HPM_P1;HPM_P2
2022/09/28 00:01:04;;;;;;;0.80;0.80;;;5.50;99.90;;;;;;5016506;28;20102;-71
2022/09/28 00:03:29;;;;;;;1.05;1.00;;;5.40;99.90;;;;;;5016258;28;20014;-71
2022/09/28 00:06:01;;;;;;;0.80;0.80;;;5.50;99.90;;;;;;5016318;28;20032;-71
2022/09/28 00:08:27;;;;;;;0.70;0.70;;;5.50;99.90;;;;;;5015394;28;20535;-71
2022/09/28 00:10:56;;;;;;;2.58;0.82;;;5.50;99.90;;;;;;5016049;28;20105;-71
2022/09/28 00:13:22;;;;;;;1.15;1.00;;;5.50;99.90;;;;;;5015969;28;20026;-71
2022/09/28 00:16:01;;;;;;;1.00;1.00;;;5.50;99.90;;;;;;5015615;28;20053;-71
2022/09/28 00:18:27;;;;;;;1.10;1.00;;;5.50;99.90;;;;;;5016116;28;20041;-72
2022/09/28 00:21:04;;;;;;;1.10;1.00;;;5.50;99.90;;;;;;5015830;28;20414;-71
2022/09/28 00:23:30;;;;;;;1.55;1.13;;;5.50;99.90;;;;;;5015848;28;20026;-71
2022/09/28 00:25:59;;;;;;;1.00;0.90;;;5.50;99.90;;;;;;5015752;28;20033;-71
2022/09/28 00:28:25;;;;;;;1.83;1.45;;;5.50;99.90;;;;;;5015135;28;20034;-72
2022/09/28 00:30:54;;;;;;;1.40;1.05;;;5.50;99.90;;;;;;5015721;28;20030;-72
2022/09/28 00:33:19;;;;;;;1.40;1.30;;;5.50;99.90;;;;;;5015115;28;20026;-72
2022/09/28 00:35:45;;;;;;;1.40;1.30;;;5.50;99.90;;;;;;5016588;28;20025;-72
2022/09/28 00:38:11;;;;;;;1.42;1.30;;;5.50;99.90;;;;;;5016307;28;20496;-72
2022/09/28 00:40:36;;;;;;;1.50;1.38;;;5.60;99.90;;;;;;5015282;28;20022;-71
2022/09/28 00:43:19;;;;;;;1.40;1.10;;;5.60;99.90;;;;;;5015404;28;20088;-71
2022/09/28 00:45:49;;;;;;;2.25;1.35;;;5.50;99.90;;;;;;5015984;28;20084;-72
2022/09/28 00:48:15;;;;;;;3.25;1.45;;;5.50;99.90;;;;;;5015741;28;20026;-71
2022/09/28 00:50:40;;;;;;;1.85;1.50;;;5.50;99.90;;;;;;5015428;28;20506;-71
2022/09/28 00:53:24;;;;;;;1.45;1.35;;;5.60;99.90;;;;;;5015526;28;20034;-72
2022/09/28 00:55:55;;;;;;;3.45;1.25;;;5.50;99.90;;;;;;5015449;28;20490;-71
2022/09/28 00:58:26;;;;;;;1.27;1.10;;;5.60;99.90;;;;;;5014807;28;20041;-71
2022/09/28 01:00:56;;;;;;;1.55;1.45;;;5.60;99.90;;;;;;5015324;28;20033;-72
2022/09/28 01:03:23;;;;;;;1.48;1.30;;;5.70;99.90;;;;;;5015341;28;20048;-72
2022/09/28 01:05:51;;;;;;;4.18;1.30;;;5.70;99.90;;;;;;5014635;28;20500;-71
2022/09/28 01:08:19;;;;;;;5.78;1.80;;;5.70;99.90;;;;;;5014901;28;20505;-71
2022/09/28 01:10:46;;;;;;;1.88;1.70;;;5.70;99.90;;;;;;5014936;28;20026;-72
2022/09/28 01:13:12;;;;;;;4.05;1.60;;;5.80;99.90;;;;;;5014856;28;20022;-71
2022/09/28 01:15:47;;;;;;;2.88;1.50;;;5.80;99.90;;;;;;5015112;28;20097;-72
2022/09/28 01:18:23;;;;;;;1.77;1.45;;;5.90;99.90;;;;;;5014724;28;20486;-71
2022/09/28 01:21:10;;;;;;;1.52;1.33;;;5.90;99.90;;;;;;5015191;28;20026;-71
2022/09/28 01:23:36;;;;;;;2.30;1.77;;;5.90;99.90;;;;;;5014658;28;20018;-71
2022/09/28 01:26:22;;;;;;;1.58;1.45;;;5.90;99.90;;;;;;5014630;28;20022;-72
2022/09/28 01:28:52;;;;;;;1.55;1.42;;;5.90;99.90;;;;;;5014532;28;20033;-71
2022/09/28 01:31:24;;;;;;;2.92;1.50;;;5.80;99.90;;;;;;5014194;28;20394;-72
2022/09/28 01:34:02;;;;;;;3.15;1.60;;;5.80;99.90;;;;;;5014846;28;20021;-72
2022/09/28 01:36:49;;;;;;;2.42;1.23;;;5.80;99.90;;;;;;5014813;28;20022;-72
2022/09/28 01:39:18;;;;;;;6.05;2.13;;;5.80;99.90;;;;;;5013983;28;20057;-71
2022/09/28 01:41:48;;;;;;;6.55;1.77;;;5.80;99.90;;;;;;5014657;28;20022;-71
2022/09/28 01:44:16;;;;;;;3.05;1.60;;;5.80;99.90;;;;;;5013506;28;20040;-72
2022/09/28 01:46:46;;;;;;;1.77;1.60;;;5.80;99.90;;;;;;5013996;28;20437;-71
2022/09/28 01:49:22;;;;;;;3.03;2.13;;;5.80;99.90;;;;;;5014176;28;20041;-71
2022/09/28 01:52:01;;;;;;;1.90;1.35;;;5.80;99.90;;;;;;5014287;28;20385;-71
2022/09/28 01:54:49;;;;;;;9.05;1.83;;;5.80;99.90;;;;;;5014174;28;20030;-71
2022/09/28 01:57:38;;;;;;;3.40;1.98;;;5.80;99.90;;;;;;5013882;28;20052;-71
2022/09/28 02:00:11;;;;;;;2.67;1.95;;;5.80;99.90;;;;;;5013567;28;20026;-71
2022/09/28 02:02:53;;;;;;;2.47;1.48;;;5.80;99.90;;;;;;5014247;28;20026;-71
2022/09/28 02:05:35;;;;;;;5.00;1.58;;;5.80;99.90;;;;;;5014082;28;20030;-71
2022/09/28 02:08:25;;;;;;;2.47;1.58;;;5.80;99.90;;;;;;5014224;28;20084;-71
2022/09/28 02:11:02;;;;;;;1.75;1.63;;;5.70;99.90;;;;;;5012237;28;20060;-71
2022/09/28 02:13:41;;;;;;;4.75;2.08;;;5.70;99.90;;;;;;5014114;28;20105;-71
2022/09/28 02:16:21;;;;;;;3.38;1.70;;;5.70;99.90;;;;;;5013739;28;20494;-71
2022/09/28 02:18:47;;;;;;;1.90;1.58;;;5.70;99.90;;;;;;5014004;28;20113;-71
2022/09/28 02:21:37;;;;;;;2.65;1.65;;;5.70;99.90;;;;;;5013353;28;20105;-72
2022/09/28 02:24:08;;;;;;;1.70;1.58;;;5.70;99.90;;;;;;5013844;28;20025;-71
2022/09/28 02:26:39;;;;;;;2.53;1.58;;;5.70;99.90;;;;;;5013857;28;20053;-72
2022/09/28 02:29:04;;;;;;;2.58;1.80;;;5.80;99.90;;;;;;5013799;28;20054;-71
2022/09/28 02:31:30;;;;;;;2.30;1.90;;;5.80;99.90;;;;;;5013738;28;20484;-72
2022/09/28 02:33:57;;;;;;;2.78;2.08;;;5.70;99.90;;;;;;5013113;28;20026;-71
2022/09/28 02:36:26;;;;;;;2.42;2.00;;;5.70;99.90;;;;;;5013622;28;20022;-71
2022/09/28 02:38:52;;;;;;;3.42;2.47;;;5.70;99.90;;;;;;5013491;28;20061;-71
2022/09/28 02:41:30;;;;;;;5.40;3.05;;;5.80;99.90;;;;;;5013827;28;20100;-72
2022/09/28 02:44:05;;;;;;;6.40;2.83;;;5.80;99.90;;;;;;5013893;28;20018;-71
2022/09/28 02:47:03;;;;;;;3.22;2.55;;;5.80;99.90;;;;;;5028350;28;20516;-71
2022/09/28 02:49:33;;;;;;;4.63;2.42;;;5.90;99.90;;;;;;5013794;28;20448;-71
2022/09/28 02:52:17;;;;;;;3.90;2.58;;;5.90;99.90;;;;;;5013619;28;20034;-72
2022/09/28 02:54:49;;;;;;;;;;;5.90;99.90;;;;;;5029097;28;20501;-72
2022/09/28 02:57:33;;;;;;;3.63;2.85;;;5.90;99.90;;;;;;5016596;28;20389;-71
2022/09/28 03:00:09;;;;;;;6.78;3.25;;;5.90;99.90;;;;;;5085754;23;20131;-68
2022/09/28 03:02:40;;;;;;;7.05;3.30;;;5.90;99.90;;;;;;5077094;28;20017;-68
2022/09/28 03:05:14;;;;;;;5.40;3.70;;;5.90;99.90;;;;;;5076670;28;20044;-68
2022/09/28 03:07:59;;;;;;;10.05;4.18;;;5.90;99.90;;;;;;5075772;28;20029;-68
2022/09/28 03:10:46;;;;;;;7.30;4.45;;;6.00;99.90;;;;;;5057623;28;20033;-68
2022/09/28 03:13:12;;;;;;;5.90;4.20;;;6.00;99.90;;;;;;5057040;28;20029;-68
2022/09/28 03:15:39;;;;;;;5.80;4.70;;;6.10;99.90;;;;;;5056354;28;20031;-69
2022/09/28 03:18:05;;;;;;;9.57;5.05;;;6.10;99.90;;;;;;5049709;28;20014;-68
2022/09/28 03:20:32;;;;;;;7.28;5.43;;;6.10;99.90;;;;;;5036656;28;20071;-68
2022/09/28 03:22:57;;;;;;;9.90;6.10;;;6.20;99.90;;;;;;5037740;28;20025;-68
2022/09/28 03:25:23;;;;;;;12.15;6.75;;;6.20;99.90;;;;;;5036786;28;20040;-68
2022/09/28 03:27:49;;;;;;;22.73;8.15;;;6.30;99.90;;;;;;5036944;28;20037;-68
2022/09/28 03:30:14;;;;;;;23.40;7.32;;;6.30;99.90;;;;;;5035982;28;20030;-69
2022/09/28 03:32:40;;;;;;;10.27;6.53;;;6.30;99.90;;;;;;5036815;28;20033;-69
2022/09/28 03:35:06;;;;;;;8.30;6.32;;;6.40;99.90;;;;;;5036612;28;20028;-69
2022/09/28 03:37:32;;;;;;;10.05;5.97;;;6.30;99.90;;;;;;5036594;28;20029;-69
2022/09/28 03:39:58;;;;;;;8.02;6.20;;;6.30;99.90;;;;;;5036586;28;20018;-69
2022/09/28 03:42:23;;;;;;;7.70;5.70;;;6.30;99.90;;;;;;5036598;28;20067;-69
2022/09/28 03:44:49;;;;;;;7.53;5.95;;;6.30;99.90;;;;;;5035872;28;20028;-69
2022/09/28 03:47:16;;;;;;;17.60;6.43;;;6.20;99.90;;;;;;5036523;28;20139;-69
2022/09/28 03:49:42;;;;;;;8.15;5.30;;;6.20;99.90;;;;;;5036147;28;20029;-69
2022/09/28 03:52:08;;;;;;;6.47;5.28;;;6.20;99.90;;;;;;5036315;28;20013;-69
2022/09/28 03:54:33;;;;;;;5.18;4.47;;;6.10;99.90;;;;;;5036132;28;20076;-69
2022/09/28 03:56:59;;;;;;;4.95;4.38;;;6.00;99.90;;;;;;5040378;28;20017;-69
2022/09/28 03:59:24;;;;;;;25.48;4.90;;;6.00;99.90;;;;;;5055732;28;20025;-69
2022/09/28 04:01:50;;;;;;;19.15;4.93;;;5.90;99.90;;;;;;5055949;28;20013;-69
2022/09/28 04:04:16;;;;;;;6.63;4.38;;;5.80;99.90;;;;;;5056040;28;20044;-69
2022/09/28 04:06:42;;;;;;;5.72;4.60;;;5.70;99.90;;;;;;5036522;28;20029;-69
2022/09/28 04:09:08;;;;;;;4.25;3.85;;;5.60;99.90;;;;;;5035916;28;20029;-69
2022/09/28 04:11:34;;;;;;;5.53;4.15;;;5.60;99.90;;;;;;5035912;28;20048;-69
2022/09/28 04:13:59;;;;;;;4.32;3.92;;;5.50;99.90;;;;;;5035620;28;20497;-69
2022/09/28 04:16:25;;;;;;;6.65;3.40;;;5.50;99.90;;;;;;5035787;28;20036;-69
2022/09/28 04:18:51;;;;;;;4.72;4.20;;;5.50;99.90;;;;;;5035097;28;20588;-69
2022/09/28 04:21:18;;;;;;;4.88;4.13;;;5.50;99.90;;;;;;5035509;28;20061;-69
2022/09/28 04:23:45;;;;;;;4.68;4.20;;;5.50;99.90;;;;;;5035854;28;20033;-69
2022/09/28 04:26:22;;;;;;;5.18;4.47;;;5.40;99.90;;;;;;5035993;28;20052;-69
2022/09/28 04:32:04;;;;;;;8.70;4.95;;;5.30;99.90;;;;;;5035556;28;20044;-69
2022/09/28 04:34:30;;;;;;;6.05;5.05;;;5.20;99.90;;;;;;5002411;28;20029;-69
2022/09/28 04:36:56;;;;;;;14.60;5.60;;;5.20;99.90;;;;;;5036440;28;20025;-69
2022/09/28 04:39:21;;;;;;;5.75;5.15;;;5.10;99.90;;;;;;5035182;28;20025;-69
2022/09/28 04:41:48;;;;;;;5.93;4.97;;;5.10;99.90;;;;;;5034813;28;20373;-69
2022/09/28 04:44:13;;;;;;;5.82;4.97;;;5.00;99.90;;;;;;5035206;28;20017;-69
2022/09/28 04:46:39;;;;;;;6.93;5.85;;;5.00;99.90;;;;;;5035474;28;20059;-69
2022/09/28 04:49:04;;;;;;;7.70;6.50;;;5.00;99.90;;;;;;5034845;28;20478;-69
2022/09/28 04:51:31;;;;;;;6.82;6.18;;;4.90;99.90;;;;;;5035240;28;20033;-69
2022/09/28 04:53:56;;;;;;;7.55;6.70;;;4.90;99.90;;;;;;5035123;28;20080;-69
2022/09/28 04:56:22;;;;;;;8.18;6.28;;;4.90;99.90;;;;;;5034576;28;20037;-69
2022/09/28 04:58:47;;;;;;;8.35;6.72;;;4.90;99.90;;;;;;5034557;28;20040;-69
2022/09/28 05:01:15;;;;;;;8.48;6.45;;;4.90;99.90;;;;;;5034862;28;20021;-69
2022/09/28 05:03:42;;;;;;;9.57;6.93;;;4.90;99.90;;;;;;5034862;28;20105;-69
2022/09/28 05:06:08;;;;;;;8.65;7.07;;;4.90;99.90;;;;;;5034846;28;20037;-69
2022/09/28 05:08:34;;;;;;;8.88;7.50;;;5.00;99.90;;;;;;5034177;28;20036;-69
2022/09/28 05:11:05;;;;;;;10.68;6.70;;;5.00;99.90;;;;;;5034751;28;20036;-69
2022/09/28 05:13:34;;;;;;;8.95;7.88;;;5.00;99.90;;;;;;5035168;28;20031;-69
2022/09/28 05:16:00;;;;;;;9.18;7.60;;;5.00;99.90;;;;;;5034586;28;20097;-69
2022/09/28 05:18:26;;;;;;;9.07;7.13;;;5.10;99.90;;;;;;5033734;28;20029;-69
2022/09/28 05:20:52;;;;;;;9.82;7.97;;;5.10;99.90;;;;;;5033315;28;20097;-69
2022/09/28 05:23:18;;;;;;;8.20;7.20;;;5.10;99.90;;;;;;5034613;28;20030;-69
2022/09/28 05:25:46;;;;;;;10.57;8.05;;;5.10;99.90;;;;;;5034644;28;20030;-69
2022/09/28 05:28:12;;;;;;;8.77;7.68;;;5.20;99.90;;;;;;5034235;28;20026;-69
2022/09/28 05:30:37;;;;;;;8.45;7.30;;;5.20;99.90;;;;;;5034611;28;20107;-69
2022/09/28 05:33:04;;;;;;;8.57;7.43;;;5.10;99.90;;;;;;5033807;28;20088;-69
2022/09/28 05:35:30;;;;;;;9.15;8.18;;;5.10;99.90;;;;;;5034261;28;20029;-69
2022/09/28 05:38:01;;;;;;;9.63;7.55;;;5.10;99.90;;;;;;5034352;28;20393;-69
2022/09/28 05:40:26;;;;;;;9.30;7.85;;;5.10;99.90;;;;;;5034310;28;20064;-69
2022/09/28 05:42:52;;;;;;;10.02;7.93;;;5.10;99.90;;;;;;5033577;28;20402;-69
2022/09/28 05:45:17;;;;;;;8.88;7.22;;;5.20;99.90;;;;;;5034088;28;20060;-69
2022/09/28 05:47:45;;;;;;;11.93;7.25;;;5.20;99.90;;;;;;5033995;28;20036;-69
2022/09/28 05:50:10;;;;;;;8.30;7.00;;;5.20;99.90;;;;;;5033841;28;20381;-69
2022/09/28 05:52:39;;;;;;;10.98;7.93;;;5.30;99.90;;;;;;5034469;28;20025;-69
2022/09/28 05:55:06;;;;;;;8.45;7.55;;;5.30;99.90;;;;;;5033401;28;20036;-69
2022/09/28 05:57:31;;;;;;;9.68;8.02;;;5.30;99.90;;;;;;5033775;28;20045;-69
2022/09/28 05:59:57;;;;;;;10.45;8.75;;;5.30;99.90;;;;;;5033575;28;20071;-69
2022/09/28 06:02:23;;;;;;;10.68;8.60;;;5.40;99.90;;;;;;5033700;28;20021;-69
2022/09/28 06:04:50;;;;;;;12.90;10.02;;;5.50;99.90;;;;;;5033293;28;20021;-69
2022/09/28 06:07:16;;;;;;;15.23;9.82;;;5.60;99.90;;;;;;5033956;28;20100;-69
2022/09/28 06:09:42;;;;;;;30.00;11.13;;;5.60;99.90;;;;;;5033536;28;20053;-69
2022/09/28 06:12:07;;;;;;;52.35;10.88;;;5.60;99.90;;;;;;5033581;28;20064;-69
2022/09/28 06:14:33;;;;;;;20.75;10.65;;;5.70;99.90;;;;;;5033517;28;20033;-69
2022/09/28 06:16:58;;;;;;;21.00;10.82;;;5.70;99.90;;;;;;5033021;28;20040;-69
2022/09/28 06:19:24;;;;;;;34.00;11.05;;;5.70;99.90;;;;;;5033334;28;20473;-69
2022/09/28 06:21:50;;;;;;;41.60;11.07;;;5.80;99.90;;;;;;5033454;28;20059;-69
2022/09/28 06:24:15;;;;;;;11.57;9.43;;;5.80;99.90;;;;;;5033437;28;20362;-69
2022/09/28 06:26:41;;;;;;;13.20;9.77;;;5.90;99.90;;;;;;5032967;28;20022;-69
2022/09/28 06:29:06;;;;;;;15.15;10.48;;;6.00;99.90;;;;;;5033322;28;20029;-69
2022/09/28 06:31:32;;;;;;;12.20;10.10;;;6.10;99.90;;;;;;5032890;28;20033;-69
2022/09/28 06:34:00;;;;;;;16.30;10.32;;;6.20;99.90;;;;;;5032877;28;20017;-69
2022/09/28 06:36:28;;;;;;;16.08;10.23;;;6.30;99.90;;;;;;5033255;28;20108;-69
2022/09/28 06:38:53;;;;;;;11.57;9.60;;;6.40;99.90;;;;;;5032011;28;20367;-69
2022/09/28 06:41:19;;;;;;;14.45;9.82;;;6.50;99.90;;;;;;5033514;28;20104;-69
2022/09/28 06:43:46;;;;;;;13.13;9.75;;;6.60;99.90;;;;;;5033533;28;20100;-69
2022/09/28 06:46:13;;;;;;;9.98;8.90;;;6.70;99.90;;;;;;5032767;28;20100;-69
2022/09/28 06:48:38;;;;;;;10.90;9.43;;;6.70;99.90;;;;;;5033687;28;20029;-69
2022/09/28 06:51:04;;;;;;;11.65;9.02;;;6.80;99.90;;;;;;5033449;28;20096;-69
2022/09/28 06:53:30;;;;;;;13.23;9.82;;;6.90;99.90;;;;;;5032625;28;20451;-69
2022/09/28 06:55:56;;;;;;;11.73;9.55;;;6.90;99.90;;;;;;5033138;28;20030;-70
2022/09/28 06:58:22;;;;;;;40.97;11.77;;;7.10;99.90;;;;;;5032798;28;20071;-70
2022/09/28 07:00:50;;;;;;;11.38;9.57;;;7.20;99.90;;;;;;5033406;28;20029;-70
2022/09/28 07:03:18;;;;;;;134.10;13.82;;;7.30;99.90;;;;;;5033033;28;20022;-69
2022/09/28 07:05:47;;;;;;;13.23;10.60;;;7.40;99.90;;;;;;5033430;28;20485;-69
2022/09/28 07:08:13;;;;;;;10.48;9.00;;;7.50;99.90;;;;;;5032453;28;20025;-69
2022/09/28 07:10:46;;;;;;;12.98;9.80;;;7.60;99.90;;;;;;5033268;28;20111;-69
2022/09/28 07:13:14;;;;;;;58.17;11.35;;;7.60;99.90;;;;;;5033197;28;20057;-69
2022/09/28 07:15:39;;;;;;;14.20;10.18;;;7.70;99.90;;;;;;5033226;28;20037;-69
2022/09/28 07:18:06;;;;;;;13.38;10.05;;;7.70;99.90;;;;;;5032920;28;20079;-69
2022/09/28 07:20:34;;;;;;;30.05;9.40;;;7.80;99.90;;;;;;5032436;28;20026;-68
2022/09/28 07:23:02;;;;;;;31.60;11.27;;;7.90;99.90;;;;;;5032841;28;20104;-69
2022/09/28 07:25:31;;;;;;;48.70;11.35;;;7.90;99.90;;;;;;5032919;28;20054;-68
2022/09/28 07:27:59;;;;;;;16.05;11.85;;;8.10;99.90;;;;;;5033058;28;20397;-68
2022/09/28 07:30:26;;;;;;;15.65;9.40;;;8.20;99.90;;;;;;5033072;28;20104;-68
2022/09/28 07:32:53;;;;;;;21.80;12.20;;;8.30;99.90;;;;;;5032363;28;20075;-69
2022/09/28 07:35:18;;;;;;;13.75;9.65;;;8.40;99.90;;;;;;5032791;28;20444;-69
2022/09/28 07:37:45;;;;;;;32.92;11.00;;;8.50;99.90;;;;;;5032998;28;20025;-69
2022/09/28 07:42:55;;;;;;;16.15;9.50;;;8.70;99.90;;;;;;5034206;28;20544;-68
2022/09/28 07:45:23;;;;;;;88.38;12.15;;;8.70;99.90;;;;;;5036619;28;20026;-68
2022/09/28 07:47:49;;;;;;;93.45;13.32;;;8.80;99.90;;;;;;5036275;28;20033;-68
2022/09/28 07:50:16;;;;;;;40.33;12.13;;;8.80;99.90;;;;;;5036215;28;20049;-70
2022/09/28 07:52:43;;;;;;;153.73;13.95;;;8.80;99.90;;;;;;5036301;28;20104;-69
2022/09/28 07:55:09;;;;;;;42.95;11.18;;;8.80;99.90;;;;;;5036368;28;20059;-70
2022/09/28 07:57:35;;;;;;;11.70;9.75;;;8.90;99.90;;;;;;5036011;28;20028;-70
2022/09/28 08:00:01;;;;;;;13.85;11.63;;;8.90;99.90;;;;;;5035427;28;20029;-69
2022/09/28 08:02:26;;;;;;;23.42;13.65;;;9.00;99.90;;;;;;5036269;28;20025;-70
2022/09/28 08:04:52;;;;;;;88.68;15.48;;;9.10;99.90;;;;;;5036183;28;20028;-70
2022/09/28 08:07:18;;;;;;;32.42;14.75;;;9.10;99.90;;;;;;5047776;28;20431;-70
2022/09/28 08:09:44;;;;;;;39.28;14.95;;;9.10;99.90;;;;;;5055736;28;20537;-70
2022/09/28 08:12:12;;;;;;;63.00;16.05;;;9.20;99.90;;;;;;5055235;28;20032;-70
2022/09/28 08:14:38;;;;;;;57.70;15.20;;;9.20;99.90;;;;;;5055694;28;20025;-70
2022/09/28 08:17:05;;;;;;;30.52;13.18;;;9.30;99.90;;;;;;5055121;28;20043;-70
2022/09/28 08:21:43;;;;;;;26.70;14.90;;;9.40;99.90;;;;;;5055563;28;20480;-70
2022/09/28 08:22:20;;;;;;;64.75;15.05;;;9.60;99.90;;;;;;5039943;28;20493;-70
2022/09/28 08:24:46;;;;;;;21.30;14.55;;;9.60;99.90;;;;;;5040116;28;20056;-70
2022/09/28 08:27:13;;;;;;;19.58;14.95;;;9.60;99.90;;;;;;5049473;28;20381;-70
2022/09/28 08:29:38;;;;;;;21.33;14.38;;;9.80;99.90;;;;;;5038358;28;20033;-70
2022/09/28 08:32:06;;;;;;;18.58;13.82;;;9.90;99.90;;;;;;5045881;28;20025;-70
2022/09/28 08:34:36;;;;;;;57.78;16.35;;;9.80;99.90;;;;;;5035379;28;20060;-70
2022/09/28 08:37:01;;;;;;;18.98;15.23;;;9.90;99.90;;;;;;5035688;28;20018;-70
2022/09/28 08:39:27;;;;;;;37.63;16.88;;;10.10;99.90;;;;;;5034759;28;20026;-70
2022/09/28 08:41:56;;;;;;;51.78;16.92;;;10.10;99.90;;;;;;5035832;28;20033;-70
2022/09/28 08:44:23;;;;;;;49.58;16.80;;;10.00;99.90;;;;;;5035458;28;20092;-70
2022/09/28 08:47:00;;;;;;;28.65;16.08;;;9.80;99.90;;;;;;5035325;28;20026;-70
2022/09/28 08:49:40;;;;;;;23.25;16.70;;;10.00;99.90;;;;;;5035390;28;20377;-70
2022/09/28 08:52:26;;;;;;;23.85;15.75;;;10.20;99.90;;;;;;5034572;28;20029;-70
2022/09/28 08:54:59;;;;;;;40.00;16.27;;;10.50;99.90;;;;;;5034994;28;20017;-70
2022/09/28 08:57:51;;;;;;;27.45;16.60;;;10.60;99.90;;;;;;5034987;28;20021;-70
2022/09/28 09:00:33;;;;;;;22.98;16.77;;;10.70;99.90;;;;;;5084434;22;20049;-72
2022/09/28 09:03:04;;;;;;;23.90;17.95;;;10.90;99.90;;;;;;5054440;28;20025;-72
2022/09/28 09:06:09;;;;;;;21.48;15.73;;;11.00;99.90;;;;;;5054606;28;20366;-71
2022/09/28 09:08:54;;;;;;;21.25;14.20;;;11.10;99.90;;;;;;5048921;28;20489;-72
2022/09/28 09:12:02;;;;;;;23.55;14.52;;;11.10;99.90;;;;;;5035088;28;20033;-72
2022/09/28 09:14:46;;;;;;;25.83;13.77;;;11.00;99.90;;;;;;5033303;28;20038;-71
2022/09/28 09:17:26;;;;;;;25.30;15.25;;;11.10;99.90;;;;;;5034933;28;20076;-72
2022/09/28 09:19:53;;;;;;;19.85;15.13;;;11.00;99.90;;;;;;5034613;28;20038;-72
2022/09/28 09:22:39;;;;;;;23.55;15.43;;;10.90;99.90;;;;;;5034455;28;20029;-71
2022/09/28 09:25:23;;;;;;;26.02;13.55;;;11.00;99.90;;;;;;5034545;28;20021;-72
2022/09/28 09:27:54;;;;;;;19.95;14.32;;;10.90;99.90;;;;;;5034115;28;20547;-71
2022/09/28 09:30:25;;;;;;;20.85;13.32;;;10.90;99.90;;;;;;5034355;28;20025;-72
2022/09/28 09:33:03;;;;;;;20.83;12.50;;;10.70;99.90;;;;;;5034643;28;20151;-72
2022/09/28 09:36:10;;;;;;;26.25;14.10;;;10.60;99.90;;;;;;5034519;28;20026;-72
2022/09/28 09:38:57;;;;;;;21.65;15.40;;;10.80;99.90;;;;;;4973201;28;20026;-72
2022/09/28 09:41:51;;;;;;;38.38;16.10;;;10.90;99.90;;;;;;4972874;28;20071;-71
2022/09/28 09:44:38;;;;;;;22.25;15.38;;;10.90;99.90;;;;;;5023420;28;20025;-71
2022/09/28 09:47:13;;;;;;;21.40;15.32;;;11.10;99.90;;;;;;5034397;28;20450;-72
2022/09/28 09:49:44;;;;;;;16.75;12.68;;;11.30;99.90;;;;;;5034173;28;20061;-72
2022/09/28 09:52:27;;;;;;;21.55;14.07;;;11.10;99.90;;;;;;5033457;28;20108;-73
2022/09/28 09:54:58;;;;;;;19.65;15.13;;;11.10;99.90;;;;;;5034015;28;20473;-73
2022/09/28 09:57:31;;;;;;;17.85;13.52;;;11.20;99.90;;;;;;5034144;28;20040;-72
2022/09/28 09:59:59;;;;;;;17.43;13.37;;;11.50;99.90;;;;;;5034164;28;20076;-72
2022/09/28 10:02:28;;;;;;;17.00;13.65;;;11.40;99.90;;;;;;5015645;28;20021;-71
2022/09/28 10:04:58;;;;;;;18.30;14.18;;;11.70;99.90;;;;;;5033098;28;20022;-71
2022/09/28 10:07:32;;;;;;;18.13;12.80;;;11.80;99.90;;;;;;5034212;28;20112;-72
2022/09/28 10:10:01;;;;;;;21.02;14.18;;;11.90;99.90;;;;;;5034004;28;20029;-71
2022/09/28 10:12:28;;;;;;;19.42;14.23;;;12.10;99.90;;;;;;5015863;28;20474;-72
2022/09/28 10:14:54;;;;;;;20.95;14.65;;;12.10;99.90;;;;;;5033090;28;20028;-72
2022/09/28 10:17:25;;;;;;;20.85;14.50;;;12.30;99.90;;;;;;5033664;28;20102;-71
2022/09/28 10:19:52;;;;;;;25.75;16.17;;;12.50;99.90;;;;;;5033557;28;20029;-72
2022/09/28 10:22:22;;;;;;;22.55;14.73;;;12.80;99.90;;;;;;5033567;28;20029;-72
2022/09/28 10:24:50;;;;;;;18.40;13.35;;;12.70;99.90;;;;;;5033702;28;20032;-71
2022/09/28 10:27:20;;;;;;;18.17;13.30;;;12.90;99.90;;;;;;5033932;28;20083;-71
2022/09/28 10:29:59;;;;;;;22.88;15.05;;;13.00;99.90;;;;;;5034057;28;20045;-71
2022/09/28 10:32:34;;;;;;;17.83;13.23;;;12.90;99.90;;;;;;5033813;28;20041;-72
2022/09/28 10:35:18;;;;;;;17.77;12.85;;;13.10;99.90;;;;;;5032956;28;20053;-72
2022/09/28 10:37:55;;;;;;;25.70;14.85;;;13.30;99.90;;;;;;5031650;28;20104;-71
2022/09/28 10:40:29;;;;;;;17.50;13.20;;;13.90;99.90;;;;;;5012965;28;20114;-71
2022/09/28 10:43:04;;;;;;;16.25;11.70;;;14.10;99.90;;;;;;5032354;28;20041;-72
2022/09/28 10:45:34;;;;;;;18.80;13.13;;;14.00;99.90;;;;;;5032341;28;20061;-72
2022/09/28 10:48:03;;;;;;;18.05;11.80;;;14.10;99.90;;;;;;5032400;28;20021;-71
2022/09/28 10:50:29;;;;;;;18.45;12.77;;;13.90;99.90;;;;;;5032757;28;20025;-72
2022/09/28 10:53:18;;;;;;;18.48;12.18;;;13.60;99.90;;;;;;5032495;28;20025;-71
2022/09/28 10:55:56;;;;;;;18.85;12.93;;;13.40;99.90;;;;;;5030113;28;20111;-71
2022/09/28 10:58:40;;;;;;;19.75;12.75;;;13.20;99.90;;;;;;5033119;28;20033;-72
2022/09/28 11:01:17;;;;;;;18.63;12.95;;;13.40;99.90;;;;;;5030902;28;20164;-71
2022/09/28 11:03:59;;;;;;;13.65;10.07;;;14.10;99.90;;;;;;5033307;28;20028;-71
2022/09/28 11:06:28;;;;;;;19.08;13.45;;;14.30;99.90;;;;;;5033330;28;20021;-71
2022/09/28 11:09:02;;;;;;;15.25;11.02;;;14.50;99.90;;;;;;5032855;28;20025;-71
2022/09/28 11:11:28;;;;;;;14.40;10.38;;;14.90;99.90;;;;;;5033521;28;20025;-72
2022/09/28 11:13:59;;;;;;;14.25;9.63;;;15.10;99.90;;;;;;5033254;28;20503;-71
2022/09/28 11:16:27;;;;;;;14.43;8.40;;;15.20;99.90;;;;;;5034376;28;20037;-72
2022/09/28 11:18:54;;;;;;;43.85;32.38;;;15.00;99.90;;;;;;5036086;28;20026;-71
2022/09/28 11:21:31;;;;;;;18.30;11.35;;;15.10;99.90;;;;;;5036501;28;20048;-71
2022/09/28 11:24:00;;;;;;;16.08;9.45;;;15.00;99.90;;;;;;5036766;28;20025;-71
2022/09/28 11:26:33;;;;;;;11.23;8.25;;;15.30;99.90;;;;;;5036938;28;20474;-71
2022/09/28 11:28:58;;;;;;;17.30;9.48;;;15.60;99.90;;;;;;5036977;28;20026;-71
2022/09/28 11:31:28;;;;;;;12.50;7.80;;;15.70;99.90;;;;;;5036036;28;20037;-71
2022/09/28 11:34:15;;;;;;;10.18;6.45;;;15.80;99.90;;;;;;5036577;28;20024;-71
2022/09/28 11:37:01;;;;;;;10.88;6.95;;;16.10;99.90;;;;;;5036856;28;20025;-71
2022/09/28 11:39:47;;;;;;;12.77;7.35;;;16.80;99.90;;;;;;5036674;28;20025;-71
2022/09/28 11:42:34;;;;;;;12.82;5.97;;;17.50;99.90;;;;;;5035950;28;20032;-72
2022/09/28 11:45:36;;;;;;;9.07;5.70;;;17.90;99.90;;;;;;5036472;28;20471;-72
2022/09/28 11:48:14;;;;;;;13.13;5.05;;;17.40;99.90;;;;;;5036664;28;20032;-71
2022/09/28 11:50:43;;;;;;;6.65;4.68;;;17.30;99.90;;;;;;5036581;28;20097;-72
2022/09/28 11:53:17;;;;;;;11.88;5.10;;;17.60;99.90;;;;;;5036301;28;20104;-72
2022/09/28 11:55:50;;;;;;;7.03;3.92;;;18.20;99.90;;;;;;5034477;28;20061;-71
2022/09/28 11:58:29;;;;;;;12.65;4.38;;;18.40;99.90;;;;;;5036722;28;20025;-72
2022/09/28 12:01:04;;;;;;;7.85;4.25;;;19.10;99.90;;;;;;5035831;28;20402;-71
2022/09/28 12:03:37;;;;;;;6.50;3.85;;;19.90;99.90;;;;;;5017870;28;20496;-72
2022/09/28 12:06:06;;;;;;;5.63;3.50;;;20.50;99.90;;;;;;5036529;28;20423;-72
2022/09/28 12:08:43;;;;;;;5.15;2.67;;;21.20;99.90;;;;;;5036130;28;20029;-71
2022/09/28 12:11:21;;;;;;;3.55;2.38;;;21.60;99.90;;;;;;5036171;28;20026;-72
2022/09/28 12:13:51;;;;;;;3.90;2.17;;;21.80;99.90;;;;;;5035614;28;20036;-72
2022/09/28 12:16:28;;;;;;;4.00;2.70;;;22.10;99.90;;;;;;5035853;28;20040;-72
2022/09/28 12:18:59;;;;;;;2.78;1.70;;;22.10;99.90;;;;;;5036207;28;20021;-72
2022/09/28 12:21:41;;;;;;;5.53;2.22;;;21.20;99.90;;;;;;5036047;28;20028;-72
2022/09/28 12:24:22;;;;;;;3.75;1.65;;;21.40;99.90;;;;;;5035966;28;20039;-72
2022/09/28 12:26:54;;;;;;;2.10;1.52;;;21.50;99.90;;;;;;5036383;28;20095;-72
2022/09/28 12:29:26;;;;;;;2.92;1.38;;;21.20;99.90;;;;;;5020650;28;20032;-72
2022/09/28 12:32:09;;;;;;;2.08;1.50;;;21.10;99.90;;;;;;5040436;28;20021;-72
2022/09/28 12:34:34;;;;;;;3.50;1.27;;;21.40;99.90;;;;;;5039182;28;20025;-72
2022/09/28 12:37:35;;;;;;;2.38;1.42;;;22.00;99.90;;;;;;5016541;28;20026;-72
2022/09/28 12:40:36;;;;;;;1.40;1.20;;;22.70;99.90;;;;;;5037661;28;20071;-72
2022/09/28 12:43:36;;;;;;;3.10;1.38;;;23.00;99.90;;;;;;5037640;28;20490;-72
2022/09/28 12:46:30;;;;;;;2.20;1.45;;;23.00;99.90;;;;;;5022784;28;20021;-72
2022/09/28 12:49:12;;;;;;;3.22;1.20;;;22.20;99.90;;;;;;5036502;28;20029;-72
2022/09/28 12:51:52;;;;;;;6.85;1.50;;;20.90;99.90;;;;;;5038159;28;20030;-72
2022/09/28 12:54:55;;;;;;;4.05;1.48;;;19.50;99.90;;;;;;5035841;28;20036;-73
2022/09/28 12:57:30;;;;;;;2.97;1.40;;;18.70;99.90;;;;;;5034653;28;20029;-72
2022/09/28 13:00:10;;;;;;;2.72;1.35;;;18.00;99.90;;;;;;5035116;28;20087;-72
2022/09/28 13:02:36;;;;;;;2.90;1.30;;;17.20;99.90;;;;;;5035181;28;20021;-73
2022/09/28 13:05:04;;;;;;;2.40;1.67;;;16.70;99.90;;;;;;5035319;28;20032;-73
2022/09/28 13:07:52;;;;;;;2.25;1.30;;;16.50;99.90;;;;;;5034621;28;20032;-72
2022/09/28 13:10:33;;;;;;;4.20;1.60;;;16.20;99.90;;;;;;5035023;28;20432;-71
2022/09/28 13:12:58;;;;;;;3.70;1.80;;;16.00;99.90;;;;;;5034815;28;20028;-71
2022/09/28 13:15:51;;;;;;;4.40;1.55;;;15.60;99.90;;;;;;5035058;28;20377;-71